Arrey, NM (87930)

2:37 PM MST on February 08, 2016 (GMT -0700)
MesoWest | | Change Station
CLOSE
Current Station
Personal Weather Station
Location: Hillsboro, NM
Elevation: 5270 ft
Nearby Weather Stations

Elev 5270 ft 32.92 °N, 107.57 °W | Updated 28 minutes ago

Clear
Clear
62 °F
Feels Like 62 °F
N
1
Wind Variable Wind from North
Gusts 2.0 mph

Today
High -- | Low -- °F
--% Chance of Precip.
Yesterday
High -- | Low -- °F
Precip. -- in
Pressure 30.23 in
Visibility 10.0 miles
Clouds Clear
Dew Point 19 °F
Humidity 19%
Rainfall in
Snow Depth Not available.
6:59 AM 5:48 PM
New Moon, 0% visible
METAR KTCS 082053Z AUTO 00000KT 10SM CLR 15/M09 A3032 RMK AO2 SLP236 T01501094 56036 TSNO
Pressure 30.23 in
Visibility 10.0 miles
Clouds Clear
Dew Point 19 °F
Humidity 19%
Rainfall in
Snow Depth Not available.
6:59 AM 5:48 PM
New Moon, 0% visible
METAR KTCS 082053Z AUTO 00000KT 10SM CLR 15/M09 A3032 RMK AO2 SLP236 T01501094 56036 TSNO

10-Day Weather Forecast

Almanac

Astronomy

Feb. 08, 2016 Rise Set
Actual Time
Civil Twilight
Nautical Twilight
Astronomical Twilight
Moon
Length of Visible Light
Length of Day
Tomorrow will be .
, % of the Moon is Illuminated

Today's Extremes

State Highs State Lows

Community

WunderPhotos

Upload Photos

1,891,517 photos uploaded!

WunderBlog® & News

Nearby

Air Quality

  Air Quality AQ Index Pollutant
Not available.

Snow Depth

Station Depth Elevation

Earthquake Activity

City Distance Mag. Time & Date
Minimum magnitude displayed is 2.5.

Coastal Water Temperatures

Place Temperature

Stations

Nearby Weather Stations

Station Location Temp. Windchill Dew Point Humidity Wind Precip. Elev Updated Type
                   

Watches & Warnings

There are currently no watches in effect.